1NC0 weather

Delk's Airport
Asheboro, North Carolina, United States

Public forecast

Using degrees Fahrenheit for public forecast. Weather courtesy of forecast.io.

METAR (pilot weather report)

Closest report is Asheboro Regional Airport, 4.7 nm (8.6 km) SSE. Retrieved 2019/07/22 19:25 UTC (8 minutes ago):

KHBI 221925Z AUTO 21008KT 190V250 10SM CLR 34/19 A2995 RMK AO2 T03350188

TAF (pilot weather forecast)

Closest forecast is Piedmont Triad International Airport, 22.6 nm (41.8 km) N. Retrieved 2019/07/22 18:39 UTC (54 minutes ago):

TAF KGSO 221737Z 2218/2318 22011G19KT P6SM FEW045 BKN250 FM222000 22011KT P6SM VCSH SCT050 BKN250 TEMPO 2220/2224 VRB20G35KT 2SM TSRA SCT028 BKN050CB BKN120 FM230900 23005KT P6SM VCSH SCT015 BKN040 BKN090 TEMPO 2309/2313 5SM -SHRA BKN015 FM231400 25005KT P6SM SCT022 BKN040 BKN090 PROB30 2314/2318 VRB15G30KT 2SM TSRA BKN015 BKN040CB BKN120